Terminal Aerodrome Forecast
Issued by NWS

Home | Current Version | Previous Version | Text Only | Print | Product List | Glossary Off
Versions: 1 2 3 4 5 6 7 8 9 10 11 12 13 14 15 16

515
FTUS43 KMPX 272106 AAA
TAFRWF
TAF AMD
KRWF 272106Z 2721/2818 VRB04KT 5SM BR VCSH BKN050 OVC080
     FM280700 36005KT 5SM -SHRA BR SCT015 OVC030
     FM281400 34005KT P6SM OVC025=

USA.gov is the U.S. government's official web portal to all federal, state and local government web resources and services.